Tiempo atmosférico en la estación meteorológica de Riaño, León (1090 m.)



Fecha
DESCASC
Temp. máxima en grados centígrados (hora)
DESCASC
Temp. mínima en grados centígrados (hora)
DESCASC
Temp. media en grados centígrados
DESCASC
Racha de viento máxima en m/sg (hora)
DESCASC
Velocidad máxima media en intervalos de 10 minutos(hora)
DESCASC
Precipitaciones diarias en mm
DESCASC
Precipitaciones de 00:00 a 06:00 en mm
DESCASC
Precipitaciones de 06:00 a 12:00 en mm
DESCASC
Precipitaciones de 12:00 a 18:00 en mm
DESCASC
Precipitaciones de 18:00 a 24:00 en mm
DESCASC
23-06-2019 22.3 (12:30) 9.5 (06:20) 15.9 13.33 (16:20) 9.17 (16:20) 0.6 0 0 0.2 0.4
22-06-2019 24.1 (18:00) 8.2 (06:40) 16.2 8.33 (17:50) 3.61 (13:30) 0 0 0 0 0
21-06-2019 19.2 (18:00) 8.9 (05:10) 14.1 8.89 (20:50) 5 (19:20) 0 0 0 0 0
20-06-2019 20 (13:20) 10.3 (00:00) 15.2 11.11 (15:50) 8.61 (15:50) 13.4 0 0 9.2 4.2
19-06-2019 19.9 (17:20) 12.5 (00:00) 16.2 10.83 (19:40) 7.78 (20:00) 1 0.6 0 0 0.4
18-06-2019 22.6 (15:10) 6.8 (00:00) 14.7 14.72 (13:00) 7.22 (14:20) 1.4 0 0 0 1.4
17-06-2019 24.3 (14:50) 6 (00:00) 15.1 13.33 (14:30) 8.33 (14:20) 0 0 0 0 0
16-06-2019 24.1 (17:10) 6.3 (00:00) 15.2 10 (20:10) 7.22 (20:20) 0 0 0 0 0
15-06-2019 20.3 (18:10) 7 (00:00) 13.6 11.39 (19:00) 9.72 (19:00) 0 0 0 0 0
14-06-2019 19.9 (14:30) 5.1 (00:00) 12.5 12.5 (18:00) 9.72 (17:20) 0 0 0 0 0
13-06-2019 19 (17:00) 4 (00:00) 11.5 13.33 (20:10) 9.72 (20:20) 0 0 0 0 0
12-06-2019 15.2 (17:20) 3.5 (00:00) 9.3 10.56 (21:00) 7.78 (21:00) 0.2 0.2 0 0 0
11-06-2019 8.8 (17:00) 4.5 (00:00) 6.7 10.83 (22:40) 6.39 (01:00) 4.2 0.8 1.8 1 0.6
10-06-2019 15.9 (14:50) 4.3 (00:00) 10.1 10.28 (18:10) 7.5 (21:10) 0 0 0 0 0
09-06-2019 17.1 (12:40) 7.2 (00:00) 12.2 12.5 (14:40) 9.17 (14:20) 0 0 0 0 0
08-06-2019 18.8 (16:10) 3.7 (00:00) 11.2 13.33 (18:50) 8.89 (19:00) 0 0 0 0 0
07-06-2019 14.5 (18:10) 4.2 (00:00) 9.3 14.17 (02:20) 6.11 (21:40) 0 0 0 0 0
06-06-2019 14.2 (17:30) 3.1 (00:00) 8.6 18.33 (21:40) 9.17 (21:10) 16.2 0 0 0 16.2
05-06-2019 12.1 (13:40) 6.1 (00:00) 9.1 10.83 (14:50) 7.78 (15:10) 0.8 0 0 0.4 0.4
04-06-2019 19.3 (16:30) 8.9 (00:00) 14.1 11.11 (21:10) 7.78 (21:10) 2.2 0 0 1 1.2
03-06-2019 25.5 (15:50) 10.4 (00:00) 17.9 10 (16:40) 6.11 (15:30) 0 0 0 0 0
02-06-2019 26.4 (16:10) 8.3 (00:00) 17.3 7.78 (14:10) 3.33 (14:50) 0 0 0 0 0
01-06-2019 29 (18:30) 6.6 (00:00) 17.8 8.06 (20:10) 5.28 (19:30) 0 0 0 0 0
31-05-2019 28 (17:00) 4.8 (00:00) 16.4 7.78 (19:10) 5.83 (18:30) 0 0 0 0 0
30-05-2019 25.4 (14:30) 4.6 (00:00) 15 8.89 (18:10) 6.39 (18:00) 0 0 0 0 0
29-05-2019 20.7 (15:40) 6.1 (00:00) 13.4 9.72 (12:30) 5.56 (08:50) 0 0 0 0 0
28-05-2019 13.6 (15:20) 6.3 (00:00) 10 13.61 (11:50) 8.61 (06:10) 0 0 0 0 0
27-05-2019 17.6 (15:20) 6.8 (00:00) 12.2 13.61 (23:30) 7.78 (23:50) 0 0 0 0 0
26-05-2019 19.1 (17:10) 6 (00:00) 12.6 10.56 (01:00) 8.33 (14:20) 0 0 0 0 0

Gráficas

Temp. máximas Temp. mínimas Temp. medias Precipitaciones Rachas de viento máximas Velocidades máximas media en intervalos de 10 minutos

Datos horarios

Fecha y hora oficial Temperatura (ºC) Velocidad del viento (km/h) Dirección del viento Racha (km/h) Dirección de racha Precipitación (mm) Presión (hPa) Tendencia (hPa) Humedad (%)
2019-06-24 23:00:00 12.4 9 Este 15 Este 2.8 -- -- 95
2019-06-24 22:00:00 12.7 3 Este 18 Este 1.8 -- -- 94
2019-06-24 21:00:00 13.1 7 Este 21 Este 1.4 -- -- 95
2019-06-24 20:00:00 13.5 4 Sudeste 9 Sur 6.6 -- -- 94
2019-06-24 19:00:00 13.7 2 Sudoeste 8 Sudoeste 2.4 -- -- 93
2019-06-24 18:00:00 13.9 2 Sudoeste 10 Oeste 2 -- -- 91
2019-06-24 17:00:00 14.5 8 Oeste 22 Sudoeste 0 -- -- 84
2019-06-24 16:00:00 16.9 14 Sudoeste 26 Sudoeste 0 -- -- 67
2019-06-24 15:00:00 17.6 14 Sudoeste 28 Sur 0 -- -- 66
2019-06-24 14:00:00 20 14 Sur 27 Sudeste 0 -- -- 68
2019-06-24 13:00:00 19.2 7 Sudoeste 18 Sur 0.2 -- -- 71
2019-06-24 12:00:00 19.6 4 Norte 12 Norte 0 -- -- 79
2019-06-24 11:00:00 16.7 3 Sudoeste 8 Sudoeste 0 -- -- 86
2019-06-24 10:00:00 15 3 Sur 6 Sur 0 -- -- 88
2019-06-24 09:00:00 13.4 3 Este 5 Este 0 -- -- 91
2019-06-24 08:00:00 12 0 Calma 5 Sur 0 -- -- 96
2019-06-24 07:00:00 11.5 3 Oeste 6 Sudoeste 0 -- -- 95
2019-06-24 06:00:00 11.6 0 Calma 14 Sudoeste 0 -- -- 96
2019-06-24 05:00:00 11.7 2 Este 14 Sudeste 0 -- -- 96
2019-06-24 04:00:00 11 7 Noroeste 12 Noroeste 0 -- -- 97
2019-06-24 03:00:00 11.1 3 Sudoeste 8 Sur 0 -- -- 96
2019-06-24 02:00:00 11.3 3 Sudoeste 6 Sur 0 -- -- 94
2019-06-24 01:00:00 12.3 4 Noroeste 8 Noroeste 0 -- -- 94
2019-06-24 00:00:00 12.6 2 Noroeste 6 Sudoeste 0 -- -- 92
2019-06-23 23:00:00 13 0 Calma 6 Noroeste 0 -- -- 90
2019-06-23 22:00:00 13.9 0 Calma 9 Sudoeste 0 -- -- 86
2019-06-23 21:00:00 15.4 2 Noroeste 6 Noroeste 0 -- -- 83
2019-06-23 20:00:00 15.7 3 Noroeste 8 Noroeste 0 -- -- 84
2019-06-23 19:00:00 15.6 3 Oeste 12 Sur 0.4 -- -- 81
2019-06-23 18:00:00 15.6 16 Sudeste 34 Sudeste 0.2 -- -- 74
2019-06-23 17:00:00 17.1 16 Sudeste 48 Sur 0 -- -- 65
2019-06-23 16:00:00 21.3 17 Sudeste 33 Sudoeste 0 -- -- 49
2019-06-23 15:00:00 20.5 10 Sur 30 Sur 0 -- -- 45
2019-06-23 14:00:00 20.5 13 Sur 41 Sur 0 -- -- 48
2019-06-23 13:00:00 22.1 19 Sur 36 Sur 0 -- -- 49
2019-06-23 12:00:00 21.2 24 Sudeste 35 Sudeste 0 -- -- 58
2019-06-23 11:00:00 19.6 16 Sudeste 30 Sudeste 0 -- -- 57
2019-06-23 10:00:00 16.7 8 Sur 18 Sudeste 0 -- -- 61
2019-06-23 09:00:00 14.8 2 Noroeste 10 Sudeste 0 -- -- 80
2019-06-23 08:00:00 12.9 2 Oeste 8 Noroeste 0 -- -- 81
2019-06-23 07:00:00 9.6 2 Sur 6 Sur 0 -- -- 92
2019-06-23 06:00:00 9.7 0 Calma 6 Sudoeste 0 -- -- 92
2019-06-23 05:00:00 9.8 2 Noroeste 8 Sudoeste 0 -- -- 92
2019-06-23 04:00:00 10 0 Calma 4 Sur 0 -- -- 91
2019-06-23 03:00:00 10.7 0 Calma 4 Sur 0 -- -- 90
2019-06-23 02:00:00 11.5 0 Calma 4 Norte 0 -- -- 87
2019-06-23 01:00:00 12.6 0 Calma 2 Sudoeste 0 -- -- 84
2019-06-23 00:00:00 13.8 0 Calma 7 Noroeste 0 -- -- 79
2019-06-22 23:00:00 15 6 Noroeste 12 Noroeste 0 -- -- 77
2019-06-22 22:00:00 17.5 2 Noroeste 7 Noroeste 0 -- -- 67
2019-06-22 21:00:00 19.7 4 Sur 15 Sudeste 0 -- -- 62
2019-06-22 20:00:00 21.9 11 Sudeste 24 Sur 0 -- -- 48
2019-06-22 19:00:00 23.1 12 Sudoeste 23 Sudeste 0 -- -- 40
2019-06-22 18:00:00 24.1 13 Sur 30 Sur 0 -- -- 41
2019-06-22 17:00:00 23.5 10 Sur 26 Sudoeste 0 -- -- 39
2019-06-22 16:00:00 22.4 3 Nordeste 12 Nordeste 0 -- -- 48
2019-06-22 15:00:00 21.8 8 Este 14 Norte 0 -- -- 56
2019-06-22 14:00:00 20.2 4 Sudeste 21 Sudeste 0 -- -- 60
2019-06-22 13:00:00 20.7 8 Norte 13 Norte 0 -- -- 62
2019-06-22 12:00:00 17.7 4 Norte 9 Nordeste 0 -- -- 69
2019-06-22 11:00:00 14.1 4 Nordeste 6 Nordeste 0 -- -- 85
2019-06-22 10:00:00 11.4 3 Este 5 Este 0 -- -- 91
2019-06-22 09:00:00 9.2 0 Calma 6 Nordeste 0 -- -- 97
2019-06-22 08:00:00 8.5 2 Nordeste 8 Este 0 -- -- 98
2019-06-22 07:00:00 8.2 2 Nordeste 7 Este 0 -- -- 98
2019-06-22 06:00:00 8.5 3 Este 10 Este 0 -- -- 98
2019-06-22 05:00:00 8.6 3 Este 6 Este 0 -- -- 98
2019-06-22 04:00:00 8.7 3 Este 7 Este 0 -- -- 98
2019-06-22 03:00:00 8.6 0 Calma 4 Sur 0 -- -- 97
2019-06-22 02:00:00 8.3 0 Calma 3 Sur 0 -- -- 96
2019-06-22 01:00:00 8.9 0 Calma 3 Sudoeste 0 -- -- 95
2019-06-22 00:00:00 10.3 0 Calma 10 Este 0 -- -- 91
2019-06-21 23:00:00 11.9 5 Nordeste 15 Nordeste 0 -- -- 90
2019-06-21 22:00:00 12.5 7 Nordeste 23 Norte 0 -- -- 88
2019-06-21 21:00:00 13.3 10 Norte 32 Nordeste 0 -- -- 86
2019-06-21 20:00:00 14.8 12 Norte 27 Norte 0 -- -- 79
2019-06-21 19:00:00 17.3 10 Sudeste 19 Sur 0 -- -- 68
2019-06-21 18:00:00 19.2 10 Sur 21 Sudeste 0 -- -- 62
2019-06-21 17:00:00 17.7 12 Sudeste 18 Sur 0 -- -- 70
2019-06-21 16:00:00 16.2 11 Sudeste 20 Sudeste 0 -- -- 70
2019-06-21 15:00:00 17.4 13 Sudeste 21 Sudeste 0 -- -- 68
2019-06-21 14:00:00 16.1 6 Sur 14 Sudoeste 0 -- -- 69
2019-06-21 13:00:00 16.7 4 Sur 19 Norte 0 -- -- 72
2019-06-21 12:00:00 17.2 11 Norte 18 Norte 0 -- -- 75
2019-06-21 11:00:00 14.9 13 Norte 18 Nordeste 0 -- -- 86
2019-06-21 10:00:00 11.9 14 Norte 21 Norte 0 -- -- 91
2019-06-21 09:00:00 11 15 Norte 21 Norte 0 -- -- 96
2019-06-21 08:00:00 10.1 10 Norte 27 Norte 0 -- -- 96
2019-06-21 07:00:00 9.3 4 Sudoeste 12 Nordeste 0 -- -- 97
2019-06-21 06:00:00 8.9 3 Sur 10 Este 0 -- -- 96
2019-06-21 05:00:00 9 4 Sur 12 Sudeste 0 -- -- 95
2019-06-21 04:00:00 9.4 3 Oeste 9 Sur 0 -- -- 96
2019-06-21 03:00:00 10.2 9 Nordeste 16 Nordeste 0 -- -- 97
2019-06-21 02:00:00 10.2 4 Norte 12 Nordeste 0 -- -- 96
2019-06-21 01:00:00 10.2 7 Sudoeste 17 Nordeste 0 -- -- 95
2019-06-21 00:00:00 10.4 3 Sur 9 Norte 0.2 -- -- 94
2019-06-20 23:00:00 10.6 5 Norte 22 Norte 0.4 -- -- 95
2019-06-20 22:00:00 10.9 9 Norte 30 Norte 0.2 -- -- 95
2019-06-20 21:00:00 11.2 8 Norte 24 Norte 0.4 -- -- 95
2019-06-20 20:00:00 11.2 2 Norte 16 Sudeste 0.4 -- -- 94
2019-06-20 19:00:00 11.7 6 Nordeste 29 Nordeste 2.6 -- -- 94
2019-06-20 18:00:00 12.2 16 Norte 25 Norte 1.4 -- -- 95
2019-06-20 17:00:00 12.6 4 Noroeste 37 Norte 7.8 -- -- 89
2019-06-20 16:00:00 15.7 25 Norte 40 Norte 0 -- -- 75
2019-06-20 15:00:00 16.9 23 Norte 31 Norte 0 -- -- 72
2019-06-20 14:00:00 19.8 14 Norte 19 Norte 0 -- -- 64
2019-06-20 13:00:00 17.9 3 Nordeste 8 Norte 0 -- -- 59
2019-06-20 12:00:00 18.1 5 Norte 8 Norte 0 -- -- 69
2019-06-20 11:00:00 16.1 2 Norte 10 Norte 0 -- -- 77
2019-06-20 10:00:00 14 7 Nordeste 10 Norte 0 -- -- 83
2019-06-20 09:00:00 12.7 8 Norte 14 Norte 0 -- -- 88
2019-06-20 08:00:00 11.5 4 Nordeste 15 Nordeste 0 -- -- 89
2019-06-20 07:00:00 11.3 8 Norte 14 Norte 0 -- -- 93
2019-06-20 06:00:00 11.2 7 Nordeste 13 Nordeste 0 -- -- 92
2019-06-20 05:00:00 11.3 6 Nordeste 15 Nordeste 0 -- -- 92
2019-06-20 04:00:00 11 4 Sudeste 10 Este 0 -- -- 92
2019-06-20 03:00:00 11.5 5 Norte 15 Este 0 -- -- 91
2019-06-20 02:00:00 11.6 5 Nordeste 19 Nordeste 0 -- -- 92
2019-06-20 01:00:00 12.5 13 Norte 20 Norte 0 -- -- 91
2019-06-20 00:00:00 12.7 10 Norte 22 Norte 0 -- -- 89
2019-06-19 23:00:00 12.9 11 Norte 24 Norte 0 -- -- 88
2019-06-19 22:00:00 13 11 Norte 33 Norte 0.2 -- -- 89
2019-06-19 21:00:00 13.6 21 Norte 38 Norte 0.2 -- -- 90
2019-06-19 20:00:00 14.7 28 Norte 39 Norte 0 -- -- 83
2019-06-19 19:00:00 19.5 7 Norte 19 Sudoeste 0 -- -- 64
2019-06-19 18:00:00 18.6 10 Sudoeste 30 Sur 0 -- -- 58
2019-06-19 17:00:00 19.5 7 Sur 17 Oeste 0 -- -- 59
2019-06-19 16:00:00 19.5 4 Sudoeste 23 Sudoeste 0 -- -- 60
2019-06-19 15:00:00 18.8 7 Sudoeste 17 Sur 0 -- -- 61
2019-06-19 14:00:00 18.1 4 Oeste 16 Sudoeste 0 -- -- 61
2019-06-19 13:00:00 16.8 8 Sudoeste 18 Sudoeste 0 -- -- 66
2019-06-19 12:00:00 16 7 Sudoeste 18 Sudoeste 0 -- -- 69
2019-06-19 11:00:00 15.4 7 Sudoeste 18 Sudoeste 0 -- -- 73
2019-06-19 10:00:00 15 6 Sudoeste 13 Sudoeste 0 -- -- 77
2019-06-19 09:00:00 14.4 8 Sur 14 Sudoeste 0 -- -- 84
2019-06-19 08:00:00 13.1 4 Sudoeste 9 Sudoeste 0 -- -- 89
2019-06-19 07:00:00 12.6 0 Calma 16 Sudoeste 0 -- -- 90
2019-06-19 06:00:00 12.8 0 Calma 14 Sur 0 -- -- 90
2019-06-19 05:00:00 13 2 Noroeste 6 Este 0 -- -- 90
2019-06-19 04:00:00 13.2 3 Sudoeste 16 Sudoeste 0 -- -- 86
2019-06-19 03:00:00 13.5 6 Sudoeste 22 Sudoeste 0 -- -- 84
2019-06-19 02:00:00 13.7 12 Sur 28 Oeste 0.2 -- -- 84
2019-06-19 01:00:00 13.7 15 Sur 36 Sur 0.4 -- -- 87
2019-06-19 00:00:00 13.7 16 Sur 29 Sur 0.2 -- -- 85
2019-06-18 23:00:00 13.6 4 Sudeste 17 Sudoeste 0 -- -- 86
2019-06-18 22:00:00 13.9 4 Sudoeste 26 Sur 1.2 -- -- 85
2019-06-18 21:00:00 15.7 8 Sudoeste 30 Sur 0 -- -- 71
2019-06-18 20:00:00 18.4 17 Sudoeste 47 Sudoeste 0 -- -- 53
2019-06-18 19:00:00 19 15 Sur 35 Sudoeste 0 -- -- 54
2019-06-18 18:00:00 19.4 15 Sudoeste 40 Sudoeste 0 -- -- 52
2019-06-18 17:00:00 19.7 13 Sudoeste 43 Sudoeste 0 -- -- 53
2019-06-18 16:00:00 22.6 17 Sudoeste 49 Sudoeste 0 -- -- 37
2019-06-18 15:00:00 22.5 20 Sudoeste 48 Sudoeste 0 -- -- 38
2019-06-18 14:00:00 21.6 24 Sudoeste 52 Sudoeste 0 -- -- 39
2019-06-18 13:00:00 21.5 25 Sur 53 Sur 0 -- -- 37
2019-06-18 12:00:00 20.3 18 Sudoeste 40 Sudoeste 0 -- -- 22
2019-06-18 11:00:00 19.5 17 Sudoeste 42 Sudoeste 0 -- -- 42
2019-06-18 10:00:00 19.2 22 Sur 50 Sur 0 -- -- 46
2019-06-18 09:00:00 16.1 21 Sur 36 Sur 0 -- -- 51
2019-06-18 08:00:00 10 0 Calma 8 Sudoeste 0 -- -- 74
2019-06-18 07:00:00 6.8 0 Calma 7 Sudoeste 0 -- -- 85
2019-06-18 06:00:00 7.5 0 Calma 6 Sur 0 -- -- 79
2019-06-18 05:00:00 8.3 0 Calma 4 Sur 0 -- -- 77
2019-06-18 04:00:00 10.4 3 Noroeste 10 Sudoeste 0 -- -- 69
2019-06-18 03:00:00 11.7 2 Norte 16 Noroeste 0 -- -- 62
2019-06-18 02:00:00 13.4 6 Nordeste 18 Este 0 -- -- 61
2019-06-18 01:00:00 16.2 0 Calma 36 Sudoeste 0 -- -- 40
2019-06-18 00:00:00 15 5 Sudoeste 10 Sudoeste 0 -- -- 50
2019-06-17 23:00:00 16.1 2 Nordeste 10 Este 0 -- -- 46
2019-06-17 22:00:00 17.2 3 Sudoeste 8 Oeste 0 -- -- 47
2019-06-17 21:00:00 19.3 4 Oeste 18 Sudoeste 0 -- -- 33
2019-06-17 20:00:00 20.5 3 Sudoeste 43 Sudoeste 0 -- -- 51
2019-06-17 19:00:00 21.4 4 Oeste 18 Sur 0 -- -- 37
2019-06-17 18:00:00 22.4 6 Sudoeste 24 Sudoeste 0 -- -- 38
2019-06-17 17:00:00 22.5 12 Sudoeste 28 Oeste 0 -- -- 35
2019-06-17 16:00:00 23.3 16 Sudoeste 44 Sudoeste 0 -- -- 30
2019-06-17 15:00:00 24.2 12 Sudoeste 48 Sudeste 0 -- -- 33
2019-06-17 14:00:00 23.8 24 Sur 43 Sur 0 -- -- 38
2019-06-17 13:00:00 23.4 24 Sur 42 Sur 0 -- -- 42
2019-06-17 12:00:00 21.9 24 Sudeste 39 Sur 0 -- -- 46
2019-06-17 11:00:00 17.7 4 Nordeste 6 Nordeste 0 -- -- 69
2019-06-17 10:00:00 13.3 4 Nordeste 6 Nordeste 0 -- -- 83
2019-06-17 09:00:00 8.6 0 Calma 6 Este 0 -- -- 96
2019-06-17 08:00:00 7 0 Calma 5 Sur 0 -- -- 97
2019-06-17 07:00:00 6.2 2 Sudoeste 3 Sur 0 -- -- 97
2019-06-17 06:00:00 6.3 2 Sur 4 Sur 0 -- -- 96
2019-06-17 05:00:00 6.8 0 Calma 2 Sudoeste 0 -- -- 95
2019-06-17 04:00:00 7.6 0 Calma 3 Sudoeste 0 -- -- 93
2019-06-17 03:00:00 8.6 0 Calma 4 Norte 0 -- -- 91
2019-06-17 02:00:00 9.5 0 Calma 4 Noroeste 0 -- -- 90
2019-06-17 01:00:00 11.1 0 Calma 8 Nordeste 0 -- -- 85
2019-06-17 00:00:00 13.1 3 Este 13 Este 0 -- -- 79
2019-06-16 23:00:00 14.3 4 Sudeste 22 Norte 0 -- -- 76
2019-06-16 22:00:00 15.3 12 Norte 33 Norte 0 -- -- 74
2019-06-16 21:00:00 16.7 22 Norte 36 Norte 0 -- -- 72
2019-06-16 20:00:00 19.7 23 Norte 35 Norte 0 -- -- 62
2019-06-16 19:00:00 23.1 10 Sudeste 24 Sur 0 -- -- 33
2019-06-16 18:00:00 23.8 13 Sur 27 Sudoeste 0 -- -- 32
2019-06-16 17:00:00 23.9 13 Sudeste 31 Sudeste 0 -- -- 38
2019-06-16 16:00:00 23.4 8 Sur 27 Sudeste 0 -- -- 40
2019-06-16 15:00:00 23.1 6 Oeste 21 Sudeste 0 -- -- 43
2019-06-16 14:00:00 22.4 11 Norte 24 Sudeste 0 -- -- 49
2019-06-16 13:00:00 21.1 10 Sur 22 Sudoeste 0 -- -- 46
2019-06-16 12:00:00 18.7 5 Norte 9 Norte 0 -- -- 57
2019-06-16 11:00:00 14.2 4 Nordeste 6 Norte 0 -- -- 76
2019-06-16 10:00:00 10.4 3 Nordeste 6 Nordeste 0 -- -- 86
2019-06-16 09:00:00 6.9 4 Este 9 Este 0 -- -- 93
2019-06-16 08:00:00 6.3 4 Este 11 Este 0 -- -- 95
2019-06-16 07:00:00 6.5 6 Este 10 Este 0 -- -- 95
2019-06-16 06:00:00 7 6 Este 10 Este 0 -- -- 95
2019-06-16 05:00:00 7.7 5 Este 15 Este 0 -- -- 93
2019-06-16 04:00:00 8.2 8 Este 12 Este 0 -- -- 93
2019-06-16 03:00:00 8.2 7 Este 12 Este 0 -- -- 93
2019-06-16 02:00:00 8.6 8 Este 11 Este 0 -- -- 92
2019-06-16 01:00:00 9.2 5 Este 10 Nordeste 0 -- -- 91
2019-06-16 00:00:00 9.4 6 Nordeste 17 Nordeste 0 -- -- 91
2019-06-15 23:00:00 9.6 9 Nordeste 18 Norte 0 -- -- 91
2019-06-15 22:00:00 10.3 7 Norte 32 Norte 0 -- -- 87
2019-06-15 21:00:00 12.3 20 Norte 36 Norte 0 -- -- 80
2019-06-15 20:00:00 14 25 Norte 40 Norte 0 -- -- 75
2019-06-15 19:00:00 16.8 35 Norte 41 Norte 0 -- -- 67
2019-06-15 18:00:00 19.9 6 Sur 16 Sudoeste 0 -- -- 41
2019-06-15 17:00:00 19.4 5 Este 14 Oeste 0 -- -- 45
2019-06-15 16:00:00 18.7 4 Norte 27 Nordeste 0 -- -- 49
2019-06-15 15:00:00 18.3 10 Sur 21 Sudeste 0 -- -- 46
2019-06-15 14:00:00 17.6 4 Nordeste 15 Sudeste 0 -- -- 56
2019-06-15 13:00:00 14.6 4 Sur 16 Sudeste 0 -- -- 55
2019-06-15 12:00:00 14.7 10 Sur 24 Sudeste 0 -- -- 61
2019-06-15 11:00:00 13.5 15 Sudeste 21 Sudeste 0 -- -- 71
2019-06-15 10:00:00 11.7 5 Este 8 Este 0 -- -- 76
2019-06-15 09:00:00 10.1 3 Nordeste 9 Norte 0 -- -- 81
2019-06-15 08:00:00 7.2 0 Calma 6 Sudeste 0 -- -- 92
2019-06-15 07:00:00 7 0 Calma 8 Sudeste 0 -- -- 89
2019-06-15 06:00:00 8 3 Sudoeste 15 Norte 0 -- -- 87
2019-06-15 05:00:00 8.3 4 Norte 24 Norte 0 -- -- 84
2019-06-15 04:00:00 8.9 13 Norte 20 Norte 0 -- -- 86
2019-06-15 03:00:00 8.8 11 Norte 21 Norte 0 -- -- 85
2019-06-15 02:00:00 9 10 Norte 25 Norte 0 -- -- 81
2019-06-15 01:00:00 8.7 13 Norte 25 Norte 0 -- -- 83
2019-06-15 00:00:00 8.7 15 Norte 28 Norte 0 -- -- 82
2019-06-14 23:00:00 8.8 13 Norte 37 Norte 0 -- -- 83
2019-06-14 22:00:00 9.7 17 Norte 34 Norte 0 -- -- 86
2019-06-14 21:00:00 10.4 20 Norte 38 Norte 0 -- -- 85
2019-06-14 20:00:00 11.2 27 Norte 42 Norte 0 -- -- 81
2019-06-14 19:00:00 13.3 28 Norte 44 Norte 0 -- -- 78
2019-06-14 18:00:00 13 34 Norte 45 Norte 0 -- -- 79
2019-06-14 17:00:00 13.4 33 Norte 45 Norte 0 -- -- 75
2019-06-14 16:00:00 15.3 32 Norte 44 Norte 0 -- -- 68
2019-06-14 15:00:00 18.9 11 Sur 24 Sudoeste 0 -- -- 43
2019-06-14 14:00:00 18.5 12 Sudoeste 26 Sudoeste 0 -- -- 46
2019-06-14 13:00:00 17.8 4 Nordeste 9 Nordeste 0 -- -- 57
2019-06-14 12:00:00 17.2 5 Nordeste 8 Norte 0 -- -- 60
2019-06-14 11:00:00 12.7 4 Nordeste 8 Nordeste 0 -- -- 75
2019-06-14 10:00:00 8.1 3 Nordeste 8 Sudeste 0 -- -- 89
2019-06-14 09:00:00 6.1 4 Este 13 Este 0 -- -- 93
2019-06-14 08:00:00 5.7 9 Este 13 Este 0 -- -- 96
2019-06-14 07:00:00 5.6 8 Este 14 Este 0 -- -- 95
2019-06-14 06:00:00 5.6 9 Este 14 Este 0 -- -- 95
2019-06-14 05:00:00 5.6 7 Este 13 Este 0 -- -- 96
2019-06-14 04:00:00 5.6 9 Este 12 Este 0 -- -- 96
2019-06-14 03:00:00 5.3 5 Este 10 Este 0 -- -- 96
2019-06-14 02:00:00 5.6 0 Calma 6 Sur 0 -- -- 92
2019-06-14 01:00:00 6.7 5 Este 17 Este 0 -- -- 92
2019-06-14 00:00:00 7.9 5 Norte 30 Norte 0 -- -- 88
2019-06-13 23:00:00 8.8 18 Norte 32 Norte 0 -- -- 90
2019-06-13 22:00:00 9.4 25 Norte 39 Norte 0 -- -- 88
2019-06-13 21:00:00 10.3 32 Norte 48 Norte 0 -- -- 84
2019-06-13 20:00:00 12.3 33 Norte 45 Norte 0 -- -- 76
2019-06-13 19:00:00 15 21 Norte 45 Norte 0 -- -- 64
2019-06-13 18:00:00 19 12 Sudoeste 34 Sur 0 -- -- 33
2019-06-13 17:00:00 19 17 Sudoeste 37 Sudoeste 0 -- -- 34
2019-06-13 16:00:00 17.3 9 Sudoeste 33 Oeste 0 -- -- 48
2019-06-13 15:00:00 16.7 10 Sudoeste 28 Sudoeste 0 -- -- 45
2019-06-13 14:00:00 16.7 13 Sudoeste 24 Sudoeste 0 -- -- 46
2019-06-13 13:00:00 17.4 11 Sur 42 Sudeste 0 -- -- 46
2019-06-13 12:00:00 15.5 13 Este 26 Sudeste 0 -- -- 61
2019-06-13 11:00:00 11.9 4 Nordeste 6 Nordeste 0 -- -- 70
2019-06-13 10:00:00 9 3 Nordeste 8 Sudeste 0 -- -- 82
2019-06-13 09:00:00 5.9 4 Este 13 Este 0 -- -- 92
2019-06-13 08:00:00 4.8 10 Este 15 Este 0 -- -- 95
2019-06-13 07:00:00 4.1 7 Este 12 Este 0 -- -- 96
2019-06-13 06:00:00 4.2 8 Este 13 Nordeste 0 -- -- 96
2019-06-13 05:00:00 4.7 9 Este 12 Este 0 -- -- 96
2019-06-13 04:00:00 5.2 7 Este 15 Este 0 -- -- 95
2019-06-13 03:00:00 6.3 12 Norte 18 Nordeste 0 -- -- 93
2019-06-13 02:00:00 6.5 11 Norte 24 Norte 0 -- -- 91
2019-06-13 01:00:00 7 18 Nordeste 23 Norte 0 -- -- 91
2019-06-13 00:00:00 7.3 16 Norte 28 Norte 0 -- -- 91
2019-06-12 23:00:00 7.3 15 Norte 35 Norte 0 -- -- 89
2019-06-12 22:00:00 8.1 23 Norte 36 Norte 0 -- -- 87
2019-06-12 21:00:00 9.9 28 Norte 38 Norte 0 -- -- 83
2019-06-12 20:00:00 12.3 26 Norte 32 Norte 0 -- -- 73
2019-06-12 19:00:00 13.5 16 Norte 20 Norte 0 -- -- 64
2019-06-12 18:00:00 14.4 11 Norte 16 Noroeste 0 -- -- 57
2019-06-12 17:00:00 14 7 Norte 21 Norte 0 -- -- 64
2019-06-12 16:00:00 13.7 17 Norte 26 Norte 0 -- -- 61
2019-06-12 15:00:00 13.1 14 Norte 26 Nordeste 0 -- -- 64
2019-06-12 14:00:00 12.9 9 Norte 15 Norte 0 -- -- 61
2019-06-12 13:00:00 12.2 3 Nordeste 11 Este 0 -- -- 59
2019-06-12 12:00:00 10.3 4 Nordeste 17 Nordeste 0 -- -- 67
2019-06-12 11:00:00 8.8 12 Norte 18 Norte 0 -- -- 73
2019-06-12 10:00:00 6.7 11 Norte 24 Nordeste 0 -- -- 78
2019-06-12 09:00:00 5.7 12 Norte 19 Norte 0 -- -- 84
2019-06-12 08:00:00 4.9 11 Nordeste 27 Norte 0 -- -- 86
2019-06-12 07:00:00 4.6 9 Norte 19 Nordeste 0 -- -- 89
2019-06-12 06:00:00 3.7 2 Sudoeste 24 Norte 0 -- -- 80
2019-06-12 05:00:00 4.5 12 Norte 28 Oeste 0 -- -- 80
2019-06-12 04:00:00 5.1 14 Noroeste 31 Oeste 0 -- -- 79
2019-06-12 03:00:00 5 8 Noroeste 26 Noroeste 0 -- -- 77
2019-06-12 02:00:00 5 12 Noroeste 31 Noroeste 0.2 -- -- 80
2019-06-12 01:00:00 5.3 4 Oeste 23 Noroeste 0 -- -- 78
2019-06-12 00:00:00 5.5 4 Oeste 26 Noroeste 0 -- -- 77
2019-06-11 23:00:00 5.8 11 Noroeste 39 Noroeste 0 -- -- 78
2019-06-11 22:00:00 6 8 Noroeste 33 Noroeste 0 -- -- 80
2019-06-11 21:00:00 6.8 12 Noroeste 25 Norte 0 -- -- 79
2019-06-11 20:00:00 7.6 10 Nordeste 26 Norte 0.6 -- -- 86
2019-06-11 19:00:00 8.6 4 Noroeste 18 Noroeste 0 -- -- 74
2019-06-11 18:00:00 8.3 13 Noroeste 24 Noroeste 0.2 -- -- 81
2019-06-11 17:00:00 8.8 6 Norte 22 Norte 0 -- -- 79
2019-06-11 16:00:00 7.7 5 Norte 27 Norte 0.2 -- -- 82
2019-06-11 15:00:00 7.8 21 Norte 31 Norte 0.2 -- -- 88
2019-06-11 14:00:00 7.2 5 Noroeste 33 Norte 0 -- -- 81
2019-06-11 13:00:00 7.8 9 Norte 30 Norte 0.4 -- -- 86
2019-06-11 12:00:00 8 9 Norte 31 Norte 0.2 -- -- 83
2019-06-11 11:00:00 7.5 18 Norte 28 Norte 0.4 -- -- 87
2019-06-11 10:00:00 6.2 16 Nordeste 30 Norte 0.4 -- -- 90
2019-06-11 09:00:00 4.7 16 Norte 25 Norte 0.4 -- -- 93
2019-06-11 08:00:00 4.7 7 Noroeste 25 Norte 0.2 -- -- 86
2019-06-11 07:00:00 4.9 14 Norte 26 Norte 0.2 -- -- 94
2019-06-11 06:00:00 4.9 4 Noroeste 14 Norte 0.4 -- -- 92
2019-06-11 05:00:00 5.5 6 Norte 17 Norte 0.4 -- -- 94
2019-06-11 04:00:00 6.1 13 Norte 22 Norte 0 -- -- 92
2019-06-11 03:00:00 6.1 10 Norte 26 Norte 0 -- -- 86
2019-06-11 02:00:00 6.3 14 Norte 28 Norte 0 -- -- 87
2019-06-11 01:00:00 7.1 23 Norte 30 Norte 0 -- -- 88
2019-06-11 00:00:00 7.5 19 Norte 34 Norte 0 -- -- 89
2019-06-10 23:00:00 7.7 19 Norte 28 Norte 0 -- -- 88
2019-06-10 22:00:00 7.6 16 Norte 35 Norte 0 -- -- 88
2019-06-10 21:00:00 8 25 Norte 36 Nordeste 0 -- -- 91
2019-06-10 20:00:00 8.8 22 Norte 36 Norte 0 -- -- 88
2019-06-10 19:00:00 11.1 25 Norte 37 Norte 0 -- -- 76
2019-06-10 18:00:00 13.5 24 Norte 36 Norte 0 -- -- 64
2019-06-10 17:00:00 14.5 23 Norte 33 Norte 0 -- -- 62
2019-06-10 16:00:00 15.2 21 Norte 31 Norte 0 -- -- 59
2019-06-10 15:00:00 15.5 19 Norte 28 Norte 0 -- -- 59
2019-06-10 14:00:00 14.7 18 Norte 26 Norte 0 -- -- 61
2019-06-10 13:00:00 15.6 15 Norte 22 Norte 0 -- -- 59
2019-06-10 12:00:00 14.1 16 Norte 24 Norte 0 -- -- 62
2019-06-10 11:00:00 12.7 17 Norte 24 Norte 0 -- -- 69
2019-06-10 10:00:00 10 0 Calma 8 Nordeste 0 -- -- 75
2019-06-10 09:00:00 7.1 3 Nordeste 9 Este 0 -- -- 87
2019-06-10 08:00:00 4.6 3 Este 9 Nordeste 0 -- -- 93
2019-06-10 07:00:00 4.3 6 Este 11 Sudeste 0 -- -- 96
2019-06-10 06:00:00 4.5 5 Este 9 Este 0 -- -- 97
2019-06-10 05:00:00 4.4 4 Este 8 Este 0 -- -- 97
2019-06-10 04:00:00 5 0 Calma 15 Nordeste 0 -- -- 94
2019-06-10 03:00:00 5.5 5 Nordeste 11 Nordeste 0 -- -- 96
2019-06-10 02:00:00 5.6 3 Sudoeste 16 Norte 0 -- -- 91
2019-06-10 01:00:00 6.6 10 Norte 19 Norte 0 -- -- 93
2019-06-10 00:00:00 7.5 16 Norte 24 Norte 0 -- -- 94
2019-06-09 23:00:00 8.2 16 Norte 24 Norte 0 -- -- 91
2019-06-09 22:00:00 8.5 13 Norte 28 Nordeste 0 -- -- 90
2019-06-09 21:00:00 9.4 16 Norte 36 Norte 0 -- -- 84
2019-06-09 20:00:00 10.4 24 Norte 41 Norte 0 -- -- 81
2019-06-09 19:00:00 11.8 25 Norte 37 Norte 0 -- -- 78
2019-06-09 18:00:00 12.2 24 Norte 35 Norte 0 -- -- 79
2019-06-09 17:00:00 13.5 24 Norte 37 Norte 0 -- -- 73
2019-06-09 16:00:00 12.5 28 Norte 42 Norte 0 -- -- 81
2019-06-09 15:00:00 12.8 26 Norte 45 Norte 0 -- -- 77
2019-06-09 14:00:00 13.8 31 Norte 41 Norte 0 -- -- 75
2019-06-09 13:00:00 16.5 24 Norte 31 Norte 0 -- -- 68
2019-06-09 12:00:00 16.7 6 Norte 10 Norte 0 -- -- 69
2019-06-09 11:00:00 13.2 4 Nordeste 11 Norte 0 -- -- 76
2019-06-09 10:00:00 9.8 5 Nordeste 12 Norte 0 -- -- 88
2019-06-09 09:00:00 8.2 8 Nordeste 15 Norte 0 -- -- 92
2019-06-09 08:00:00 7.8 8 Nordeste 12 Norte 0 -- -- 94
2019-06-09 07:00:00 7.3 4 Este 9 Este 0 -- -- 93
2019-06-09 06:00:00 7.3 5 Este 11 Este 0 -- -- 94
2019-06-09 05:00:00 7.9 7 Este 15 Norte 0 -- -- 93
2019-06-09 04:00:00 8.3 9 Norte 18 Norte 0 -- -- 92
2019-06-09 03:00:00 8.5 8 Norte 19 Norte 0 -- -- 90
2019-06-09 02:00:00 8.5 5 Nordeste 13 Noroeste 0 -- -- 89
2019-06-09 01:00:00 8.6 5 Este 16 Norte 0 -- -- 89
2019-06-09 00:00:00 8.9 12 Norte 18 Norte 0 -- -- 90
2019-06-08 23:00:00 9.5 14 Norte 29 Noroeste 0 -- -- 88
2019-06-08 22:00:00 9.4 10 Norte 40 Norte 0 -- -- 86
2019-06-08 21:00:00 10.2 19 Norte 43 Norte 0 -- -- 87
2019-06-08 20:00:00 11.7 30 Norte 44 Norte 0 -- -- 82
2019-06-08 19:00:00 13.3 32 Norte 48 Norte 0 -- -- 76
2019-06-08 18:00:00 18.2 10 Sudoeste 24 Sudoeste 0 -- -- 40
2019-06-08 17:00:00 18 12 Sudoeste 38 Sudeste 0 -- -- 41
2019-06-08 16:00:00 18.5 13 Sudeste 30 Sur 0 -- -- 44
2019-06-08 15:00:00 17.9 9 Sudeste 27 Sur 0 -- -- 47
2019-06-08 14:00:00 16.5 12 Sur 36 Sur 0 -- -- 47
2019-06-08 13:00:00 15.6 17 Sur 30 Sudeste 0 -- -- 56
2019-06-08 12:00:00 14.3 11 Sudeste 22 Sudeste 0 -- -- 56
2019-06-08 11:00:00 11.8 5 Nordeste 8 Norte 0 -- -- 72
2019-06-08 10:00:00 7.6 2 Norte 6 Norte 0 -- -- 86
2019-06-08 09:00:00 5.8 2 Sudeste 10 Este 0 -- -- 89
2019-06-08 08:00:00 4.5 8 Este 13 Este 0 -- -- 96
2019-06-08 07:00:00 4.1 9 Este 13 Este 0 -- -- 96
2019-06-08 06:00:00 3.8 5 Este 10 Este 0 -- -- 95
2019-06-08 05:00:00 3.9 6 Este 12 Este 0 -- -- 94
2019-06-08 04:00:00 4.2 6 Este 14 Este 0 -- -- 94
2019-06-08 03:00:00 4.6 10 Este 14 Este 0 -- -- 96
2019-06-08 02:00:00 4.5 0 Calma 11 Este 0 -- -- 93
2019-06-08 01:00:00 5.4 3 Sudoeste 15 Este 0 -- -- 89
2019-06-08 00:00:00 6.9 8 Nordeste 21 Norte 0 -- -- 90
2019-06-07 23:00:00 7.5 7 Nordeste 30 Norte 0 -- -- 87
2019-06-07 22:00:00 8.5 17 Norte 31 Norte 0 -- -- 82
2019-06-07 21:00:00 10.4 5 Noroeste 20 Norte 0 -- -- 69
2019-06-07 20:00:00 11.9 6 Sudoeste 22 Oeste 0 -- -- 50
2019-06-07 19:00:00 13.5 10 Sudoeste 26 Sudoeste 0 -- -- 48
2019-06-07 18:00:00 13.8 9 Sudoeste 25 Sudoeste 0 -- -- 47
2019-06-07 17:00:00 14 9 Sudoeste 26 Sudoeste 0 -- -- 45
2019-06-07 16:00:00 14.1 10 Sudoeste 29 Sudoeste 0 -- -- 43
2019-06-07 15:00:00 14.1 14 Sudoeste 36 Sudoeste 0 -- -- 45
2019-06-07 14:00:00 12 8 Oeste 26 Oeste 0 -- -- 52
2019-06-07 13:00:00 12.3 10 Sudoeste 27 Sudoeste 0 -- -- 60
2019-06-07 12:00:00 10.8 14 Sudoeste 27 Sudoeste 0 -- -- 58
2019-06-07 11:00:00 9.2 14 Sudoeste 31 Sudoeste 0 -- -- 66
2019-06-07 10:00:00 7.4 13 Sudoeste 26 Sudoeste 0 -- -- 72
2019-06-07 09:00:00 4.8 12 Sudoeste 25 Sudoeste 0 -- -- 81
2019-06-07 08:00:00 4.3 6 Sudoeste 19 Sudeste 0 -- -- 84
2019-06-07 07:00:00 4.6 6 Este 19 Este 0 -- -- 85
2019-06-07 06:00:00 4.7 10 Este 27 Sudoeste 0 -- -- 84
2019-06-07 05:00:00 4.5 6 Oeste 30 Sudoeste 0 -- -- 87
2019-06-07 04:00:00 5.1 12 Sudoeste 37 Sudoeste 0 -- -- 83
2019-06-07 03:00:00 5.5 19 Sudoeste 51 Oeste 0 -- -- 77
2019-06-07 02:00:00 5.8 9 Oeste 40 Sudoeste 0 -- -- 80
2019-06-07 01:00:00 5.9 10 Sudoeste 37 Oeste 0 -- -- 78
2019-06-07 00:00:00 5.7 8 Oeste 28 Sudoeste 0 -- -- 84
2019-06-06 23:00:00 6.7 6 Oeste 38 Sudoeste 2.4 -- -- 85
2019-06-06 22:00:00 7.9 12 Oeste 66 Sur 3 -- -- 87
2019-06-06 21:00:00 9.7 21 Sudoeste 59 Sur 5.2 -- -- 87
2019-06-06 20:00:00 9.5 11 Sudoeste 31 Sur 4.8 -- -- 88
2019-06-06 19:00:00 11.1 12 Sudoeste 50 Oeste 0.8 -- -- 72
2019-06-06 18:00:00 13.5 17 Sudoeste 44 Oeste 0 -- -- 55
2019-06-06 17:00:00 13.8 13 Sudoeste 53 Sudoeste 0 -- -- 48
2019-06-06 16:00:00 13.2 26 Sur 50 Sur 0 -- -- 50
2019-06-06 15:00:00 13.5 18 Sur 44 Sur 0 -- -- 53
2019-06-06 14:00:00 12.5 20 Sur 41 Sudeste 0 -- -- 52
2019-06-06 13:00:00 12.4 18 Sudoeste 41 Sudoeste 0 -- -- 59
2019-06-06 12:00:00 11.8 16 Sur 28 Sudeste 0 -- -- 65
2019-06-06 11:00:00 11 15 Sur 31 Sur 0 -- -- 62
2019-06-06 10:00:00 9.5 14 Sur 25 Sudeste 0 -- -- 69
2019-06-06 09:00:00 6.3 13 Este 22 Este 0 -- -- 81
2019-06-06 08:00:00 3.6 8 Sudeste 16 Sudeste 0 -- -- 96
2019-06-06 07:00:00 3.5 3 Noroeste 15 Sudoeste 0 -- -- 92
2019-06-06 06:00:00 4.9 12 Sur 20 Sur 0 -- -- 89
2019-06-06 05:00:00 3.7 5 Sudoeste 9 Oeste 0 -- -- 94
2019-06-06 04:00:00 4.4 4 Sudoeste 11 Sur 0 -- -- 94
2019-06-06 03:00:00 4.4 3 Sudoeste 6 Oeste 0 -- -- 92
2019-06-06 02:00:00 5.4 3 Sudoeste 17 Norte 0 -- -- 89
2019-06-06 01:00:00 6.6 6 Nordeste 19 Nordeste 0 -- -- 87
2019-06-06 00:00:00 6.1 5 Nordeste 12 Norte 0 -- -- 87
2019-06-05 23:00:00 7 7 Norte 21 Norte 0 -- -- 83
2019-06-05 22:00:00 7.4 15 Norte 27 Norte 0 -- -- 84
2019-06-05 21:00:00 7.6 12 Norte 25 Norte 0.2 -- -- 86
2019-06-05 20:00:00 8.8 21 Norte 28 Norte 0 -- -- 80
2019-06-05 19:00:00 9.1 8 Norte 26 Norte 0.2 -- -- 82
2019-06-05 18:00:00 9.5 15 Norte 30 Norte 0 -- -- 80
2019-06-05 17:00:00 9.8 21 Norte 31 Norte 0 -- -- 76
2019-06-05 16:00:00 10.6 19 Norte 36 Norte 0 -- -- 74
2019-06-05 15:00:00 10.1 22 Norte 39 Noroeste 0.2 -- -- 77
2019-06-05 14:00:00 10.3 12 Norte 35 Norte 0.2 -- -- 75
2019-06-05 13:00:00 11.3 15 Norte 37 Norte 0 -- -- 67
2019-06-05 12:00:00 11.7 9 Norte 30 Noroeste 0 -- -- 67
2019-06-05 11:00:00 9.8 14 Norte 29 Norte 0 -- -- 72
2019-06-05 10:00:00 8.2 13 Noroeste 27 Noroeste 0 -- -- 75
2019-06-05 09:00:00 7.2 14 Norte 26 Norte 0 -- -- 87
2019-06-05 08:00:00 7 8 Norte 27 Norte 0 -- -- 88
2019-06-05 07:00:00 7.3 19 Norte 26 Norte 0 -- -- 89
2019-06-05 06:00:00 7.3 15 Norte 27 Norte 0 -- -- 88
2019-06-05 05:00:00 7.4 19 Norte 30 Norte 0 -- -- 90
2019-06-05 04:00:00 7.9 13 Norte 28 Norte 0 -- -- 88
2019-06-05 03:00:00 8.4 22 Norte 29 Norte 0 -- -- 91
2019-06-05 02:00:00 7.7 9 Norte 25 Noroeste 0 -- -- 87
2019-06-05 01:00:00 8.2 14 Norte 33 Norte 0 -- -- 91
2019-06-05 00:00:00 9 22 Norte 34 Norte 0 -- -- 92
2019-06-04 23:00:00 9.2 22 Norte 37 Norte 0 -- -- 92
2019-06-04 22:00:00 9.2 13 Norte 40 Norte 0 -- -- 89
2019-06-04 21:00:00 10.8 28 Norte 39 Norte 0 -- -- 91
2019-06-04 20:00:00 11.6 5 Noroeste 28 Norte 1.2 -- -- 84
2019-06-04 19:00:00 14.5 14 Norte 31 Oeste 0 -- -- 78
2019-06-04 18:00:00 16.3 13 Norte 28 Norte 0.6 -- -- 75
2019-06-04 17:00:00 17.1 6 Oeste 23 Oeste 0.4 -- -- 65
2019-06-04 16:00:00 17.7 8 Sudoeste 21 Sudoeste 0 -- -- 57
2019-06-04 15:00:00 16.2 9 Oeste 27 Sudoeste 0 -- -- 61
2019-06-04 14:00:00 17.1 15 Sudoeste 31 Sudoeste 0 -- -- 58
2019-06-04 13:00:00 17.3 11 Sudoeste 33 Sudoeste 0 -- -- 57
2019-06-04 12:00:00 17.8 4 Sudeste 21 Sudeste 0 -- -- 56
2019-06-04 11:00:00 16.5 6 Sur 21 Sudeste 0 -- -- 60
2019-06-04 10:00:00 16 9 Sur 17 Sudeste 0 -- -- 70
2019-06-04 09:00:00 13.6 7 Sudeste 14 Sur 0 -- -- 82
2019-06-04 08:00:00 10.2 6 Sur 10 Sur 0 -- -- 89
2019-06-04 07:00:00 10.1 5 Sudoeste 19 Sur 0 -- -- 88
2019-06-04 06:00:00 11 9 Sudeste 26 Sudeste 0 -- -- 86
2019-06-04 05:00:00 11.7 3 Sudoeste 24 Sudeste 0 -- -- 83
2019-06-04 04:00:00 12.4 12 Sur 21 Sur 0 -- -- 85
2019-06-04 03:00:00 11.6 3 Sudoeste 9 Sudeste 0 -- -- 87
2019-06-04 02:00:00 11.9 0 Calma 4 Sudeste 0 -- -- 92
2019-06-04 01:00:00 12.8 0 Calma 9 Noroeste 0 -- -- 88
2019-06-04 00:00:00 14 5 Noroeste 18 Noroeste 0 -- -- 84
2019-06-03 23:00:00 15.8 6 Norte 17 Norte 0 -- -- 78
2019-06-03 22:00:00 18.1 10 Norte 24 Sur 0 -- -- 68
2019-06-03 21:00:00 21.2 13 Sur 26 Sudoeste 0 -- -- 48
2019-06-03 20:00:00 22.3 16 Sur 34 Sur 0 -- -- 46
2019-06-03 19:00:00 23.5 13 Sudoeste 35 Sudoeste 0 -- -- 41
2019-06-03 18:00:00 24.5 13 Sudoeste 27 Sudoeste 0 -- -- 42
2019-06-03 17:00:00 24.8 11 Sudoeste 36 Sudoeste 0 -- -- 43
2019-06-03 16:00:00 25.5 18 Sur 32 Sur 0 -- -- 42
2019-06-03 15:00:00 24.9 15 Sur 32 Sur 0 -- -- 41
2019-06-03 14:00:00 24 15 Sur 32 Sur 0 -- -- 44
2019-06-03 13:00:00 22.5 4 Noroeste 17 Sudoeste 0 -- -- 52
2019-06-03 12:00:00 23.2 5 Nordeste 7 Nordeste 0 -- -- 60
2019-06-03 11:00:00 20 4 Norte 6 Norte 0 -- -- 66
2019-06-03 10:00:00 16.1 0 Calma 5 Norte 0 -- -- 76
2019-06-03 09:00:00 14.1 2 Nordeste 9 Norte 0 -- -- 80
2019-06-03 08:00:00 11.7 0 Calma 6 Sur 0 -- -- 89
2019-06-03 07:00:00 10.4 0 Calma 5 Sudoeste 0 -- -- 91
2019-06-03 06:00:00 11.1 2 Noroeste 7 Sudoeste 0 -- -- 88
2019-06-03 05:00:00 11.9 8 Sudoeste 17 Nordeste 0 -- -- 82
2019-06-03 04:00:00 11.8 2 Sudoeste 7 Sudoeste 0 -- -- 89
2019-06-03 03:00:00 11.9 0 Calma 5 Noroeste 0 -- -- 88
2019-06-03 02:00:00 12.6 0 Calma 7 Sudoeste 0 -- -- 85
2019-06-03 01:00:00 13.3 0 Calma 5 Sur 0 -- -- 82
2019-06-03 00:00:00 14.4 2 Sudoeste 9 Noroeste 0 -- -- 77
2019-06-02 23:00:00 15.4 4 Noroeste 10 Noroeste 0 -- -- 73
2019-06-02 22:00:00 17.1 5 Noroeste 19 Noroeste 0 -- -- 65
2019-06-02 21:00:00 18.7 8 Norte 21 Norte 0 -- -- 58
2019-06-02 20:00:00 21.5 8 Norte 14 Noroeste 0 -- -- 51
2019-06-02 19:00:00 23.5 4 Oeste 13 Sudoeste 0 -- -- 35
2019-06-02 18:00:00 25 6 Oeste 19 Sudoeste 0 -- -- 34
2019-06-02 17:00:00 25.2 9 Sudoeste 21 Sudoeste 0 -- -- 30
2019-06-02 16:00:00 26.2 8 Sudoeste 26 Sudoeste 0 -- -- 27
2019-06-02 15:00:00 25.1 10 Sudoeste 28 Sudoeste 0 -- -- 31
2019-06-02 14:00:00 25.2 7 Sur 16 Oeste 0 -- -- 36
2019-06-02 13:00:00 23.6 9 Sudoeste 20 Sudoeste 0 -- -- 39
2019-06-02 12:00:00 22.2 6 Nordeste 9 Norte 0 -- -- 64
2019-06-02 11:00:00 19.3 3 Nordeste 6 Norte 0 -- -- 67
2019-06-02 10:00:00 14.7 3 Este 6 Este 0 -- -- 74
2019-06-02 09:00:00 13.2 2 Nordeste 5 Este 0 -- -- 80
2019-06-02 08:00:00 10.4 2 Sur 6 Sur 0 -- -- 87
2019-06-02 07:00:00 8.3 0 Calma 0 Calma 0 -- -- 93
2019-06-02 06:00:00 8.6 0 Calma 4 Noroeste 0 -- -- 91
2019-06-02 05:00:00 9.3 0 Calma 3 Sur 0 -- -- 90
2019-06-02 04:00:00 10.4 3 Sur 6 Sudoeste 0 -- -- 85
2019-06-02 03:00:00 11.6 2 Noroeste 7 Este 0 -- -- 82
2019-06-02 02:00:00 13 0 Calma 8 Norte 0 -- -- 79
2019-06-02 01:00:00 13.6 0 Calma 5 Sur 0 -- -- 76
2019-06-02 00:00:00 15.9 0 Calma 14 Sudeste 0 -- -- 67
2019-06-01 23:00:00 17.9 4 Sur 12 Sudeste 0 -- -- 60
2019-06-01 22:00:00 19.6 2 Sudoeste 13 Noroeste 0 -- -- 54
2019-06-01 21:00:00 22.9 6 Norte 29 Norte 0 -- -- 45
2019-06-01 20:00:00 24.2 15 Norte 29 Norte 0 -- -- 42
2019-06-01 19:00:00 27.6 11 Norte 21 Noroeste 0 -- -- 37
2019-06-01 18:00:00 28.8 5 Sudoeste 20 Noroeste 0 -- -- 28
2019-06-01 17:00:00 28.7 6 Sudeste 23 Sudoeste 0 -- -- 30
2019-06-01 16:00:00 28.4 5 Sudoeste 23 Sudoeste 0 -- -- 28
2019-06-01 15:00:00 27.9 7 Sudoeste 20 Sudoeste 0 -- -- 35
2019-06-01 14:00:00 27 7 Sudoeste 21 Sudoeste 0 -- -- 36
2019-06-01 13:00:00 25.3 5 Nordeste 9 Norte 0 -- -- 52
2019-06-01 12:00:00 23.1 4 Nordeste 5 Nordeste 0 -- -- 55
2019-06-01 11:00:00 19.6 4 Nordeste 5 Norte 0 -- -- 64
2019-06-01 10:00:00 15.8 3 Nordeste 5 Nordeste 0 -- -- 72
2019-06-01 09:00:00 12.7 3 Nordeste 4 Nordeste 0 -- -- 78
2019-06-01 08:00:00 9.7 0 Calma 4 Sur 0 -- -- 88
2019-06-01 07:00:00 6.6 0 Calma 2 Sur 0 -- -- 95
2019-06-01 06:00:00 7.1 0 Calma 3 Sur 0 -- -- 95
2019-06-01 05:00:00 7.6 0 Calma 2 Noroeste 0 -- -- 92
2019-06-01 04:00:00 8.3 0 Calma 3 Sur 0 -- -- 90
2019-06-01 03:00:00 9.4 0 Calma 4 Sur 0 -- -- 86
2019-06-01 02:00:00 10.6 3 Sudoeste 5 Sudoeste 0 -- -- 83
2019-06-01 01:00:00 11.9 0 Calma 2 Norte 0 -- -- 83
2019-06-01 00:00:00 13.3 0 Calma 4 Sudeste 0 -- -- 79
2019-05-31 23:00:00 15.2 0 Calma 6 Noroeste 0 -- -- 72
2019-05-31 22:00:00 18.1 0 Calma 8 Sudoeste 0 -- -- 61
2019-05-31 21:00:00 22.8 2 Oeste 23 Norte 0 -- -- 43
2019-05-31 20:00:00 24.2 16 Norte 28 Norte 0 -- -- 43
2019-05-31 19:00:00 25.2 18 Norte 27 Norte 0 -- -- 40
2019-05-31 18:00:00 26.7 14 Norte 27 Norte 0 -- -- 37
2019-05-31 17:00:00 28 4 Nordeste 11 Norte 0 -- -- 31
2019-05-31 16:00:00 27.3 9 Norte 17 Norte 0 -- -- 29
2019-05-31 15:00:00 26.7 9 Norte 17 Norte 0 -- -- 32
2019-05-31 14:00:00 25.6 10 Norte 13 Norte 0 -- -- 41
2019-05-31 13:00:00 24 5 Nordeste 7 Nordeste 0 -- -- 49
2019-05-31 12:00:00 21.3 4 Nordeste 5 Norte 0 -- -- 53
2019-05-31 11:00:00 17.1 3 Norte 5 Norte 0 -- -- 65
2019-05-31 10:00:00 13.3 2 Norte 5 Nordeste 0 -- -- 73
2019-05-31 09:00:00 10.6 3 Norte 6 Este 0 -- -- 82
2019-05-31 08:00:00 7.8 2 Este 4 Este 0 -- -- 92
2019-05-31 07:00:00 4.8 0 Calma 3 Noroeste 0 -- -- 96
2019-05-31 06:00:00 5.3 0 Calma 3 Sur 0 -- -- 95
2019-05-31 05:00:00 6.2 0 Calma 4 Noroeste 0 -- -- 94
2019-05-31 04:00:00 7.2 0 Calma 3 Sur 0 -- -- 95
2019-05-31 03:00:00 7.8 0 Calma 4 Sudoeste 0 -- -- 93
2019-05-31 02:00:00 8.7 0 Calma 6 Noroeste 0 -- -- 89
2019-05-31 01:00:00 10.3 0 Calma 5 Este 0 -- -- 85
2019-05-31 00:00:00 11.9 0 Calma 10 Noroeste 0 -- -- 81
2019-05-30 23:00:00 14.4 0 Calma 9 Norte 0 -- -- 70
2019-05-30 22:00:00 17.3 4 Norte 22 Norte 0 -- -- 59
2019-05-30 21:00:00 19.9 13 Norte 25 Norte 0 -- -- 49
2019-05-30 20:00:00 21.8 16 Norte 27 Norte 0 -- -- 46
2019-05-30 19:00:00 22.6 21 Norte 32 Nordeste 0 -- -- 45
2019-05-30 18:00:00 23.2 23 Norte 30 Norte 0 -- -- 41
2019-05-30 17:00:00 24.6 15 Norte 28 Norte 0 -- -- 39
2019-05-30 16:00:00 24.9 13 Norte 23 Norte 0 -- -- 37
2019-05-30 15:00:00 25.3 11 Norte 23 Norte 0 -- -- 41
2019-05-30 14:00:00 24.4 4 Nordeste 9 Nordeste 0 -- -- 47
2019-05-30 13:00:00 22.7 4 Norte 8 Norte 0 -- -- 48
2019-05-30 12:00:00 19.2 3 Nordeste 5 Nordeste 0 -- -- 55
2019-05-30 11:00:00 15.8 3 Nordeste 6 Norte 0 -- -- 70
2019-05-30 10:00:00 12.1 4 Nordeste 6 Nordeste 0 -- -- 78
2019-05-30 09:00:00 8.5 2 Nordeste 8 Este 0 -- -- 92
2019-05-30 08:00:00 5.6 0 Calma 3 Sur 0 -- -- 98
2019-05-30 07:00:00 4.7 0 Calma 3 Este 0 -- -- 97
2019-05-30 06:00:00 4.6 0 Calma 3 Sur 0 -- -- 96
2019-05-30 05:00:00 5.1 0 Calma 3 Sur 0 -- -- 95
2019-05-30 04:00:00 5.8 0 Calma 4 Noroeste 0 -- -- 96
2019-05-30 03:00:00 6.5 0 Calma 8 Noroeste 0 -- -- 93
2019-05-30 02:00:00 7.4 2 Oeste 5 Noroeste 0 -- -- 92
2019-05-30 01:00:00 8.5 0 Calma 7 Oeste 0 -- -- 89
2019-05-30 00:00:00 9.9 2 Sudoeste 5 Sudoeste 0 -- -- 85
2019-05-29 23:00:00 11.8 3 Noroeste 10 Sudoeste 0 -- -- 78
2019-05-29 22:00:00 14.2 6 Noroeste 22 Norte 0 -- -- 68
2019-05-29 21:00:00 16.4 8 Norte 27 Norte 0 -- -- 61
2019-05-29 20:00:00 18.3 17 Norte 28 Norte 0 -- -- 57
2019-05-29 19:00:00 19.6 14 Norte 28 Noroeste 0 -- -- 50
2019-05-29 18:00:00 20.1 13 Norte 26 Norte 0 -- -- 53
2019-05-29 17:00:00 20.2 18 Norte 30 Norte 0 -- -- 52
2019-05-29 16:00:00 20.5 17 Norte 32 Norte 0 -- -- 50
2019-05-29 15:00:00 20 11 Noroeste 28 Norte 0 -- -- 48
2019-05-29 14:00:00 19.3 12 Norte 26 Noroeste 0 -- -- 46
2019-05-29 13:00:00 17.9 11 Norte 35 Norte 0 -- -- 53
2019-05-29 12:00:00 17.4 15 Norte 28 Noroeste 0 -- -- 55
2019-05-29 11:00:00 15.7 9 Norte 21 Norte 0 -- -- 61
2019-05-29 10:00:00 13 15 Norte 26 Norte 0 -- -- 73
2019-05-29 09:00:00 11.1 18 Norte 26 Norte 0 -- -- 76
2019-05-29 08:00:00 9.3 14 Norte 23 Norte 0 -- -- 79
2019-05-29 07:00:00 6.5 6 Noroeste 17 Norte 0 -- -- 86
2019-05-29 06:00:00 6.5 5 Norte 19 Norte 0 -- -- 87
2019-05-29 05:00:00 6.6 6 Norte 33 Norte 0 -- -- 86
2019-05-29 04:00:00 6.5 13 Norte 28 Norte 0 -- -- 86
2019-05-29 03:00:00 6.2 9 Norte 27 Norte 0 -- -- 85
2019-05-29 02:00:00 6.7 15 Norte 26 Norte 0 -- -- 87
2019-05-29 01:00:00 6.7 14 Norte 21 Norte 0 -- -- 86
2019-05-29 00:00:00 7.4 11 Norte 23 Norte 0 -- -- 78
2019-05-28 23:00:00 7.9 19 Norte 31 Norte 0 -- -- 82
2019-05-28 22:00:00 8.9 16 Norte 31 Nordeste 0 -- -- 78
2019-05-28 21:00:00 10.2 14 Norte 35 Norte 0 -- -- 69
2019-05-28 20:00:00 11.7 16 Norte 37 Norte 0 -- -- 63
2019-05-28 19:00:00 12.1 18 Norte 39 Noroeste 0 -- -- 62
2019-05-28 18:00:00 12.5 19 Norte 39 Norte 0 -- -- 63
2019-05-28 17:00:00 12.8 18 Norte 39 Norte 0 -- -- 64
2019-05-28 16:00:00 13 19 Norte 39 Norte 0 -- -- 63
2019-05-28 15:00:00 13.4 18 Norte 37 Norte 0 -- -- 60
2019-05-28 14:00:00 13 22 Norte 40 Norte 0 -- -- 62
2019-05-28 13:00:00 12 17 Norte 37 Norte 0 -- -- 66
2019-05-28 12:00:00 9.4 15 Norte 49 Norte 0 -- -- 68
2019-05-28 11:00:00 8.8 19 Norte 39 Noroeste 0 -- -- 70
2019-05-28 10:00:00 9.1 14 Norte 29 Norte 0 -- -- 69
2019-05-28 09:00:00 8.3 21 Norte 32 Norte 0 -- -- 77
2019-05-28 08:00:00 7.7 21 Norte 37 Norte 0 -- -- 77
2019-05-28 07:00:00 6.3 26 Norte 43 Norte 0 -- -- 84
2019-05-28 06:00:00 6.6 28 Norte 43 Norte 0 -- -- 82
2019-05-28 05:00:00 7 27 Norte 38 Norte 0 -- -- 85
2019-05-28 04:00:00 7.3 24 Norte 35 Norte 0 -- -- 87
2019-05-28 03:00:00 6.8 17 Norte 35 Norte 0 -- -- 86
2019-05-28 02:00:00 7.3 19 Norte 42 Norte 0 -- -- 83
2019-05-28 01:00:00 7.8 24 Norte 35 Norte 0 -- -- 83
2019-05-28 00:00:00 8.2 28 Norte 49 Norte 0 -- -- 85
2019-05-27 23:00:00 8.7 25 Norte 39 Norte 0 -- -- 85
2019-05-27 22:00:00 9.7 19 Norte 35 Norte 0 -- -- 83
2019-05-27 21:00:00 10.6 23 Norte 34 Norte 0 -- -- 79
2019-05-27 20:00:00 11.8 21 Norte 37 Norte 0 -- -- 77
2019-05-27 19:00:00 13.4 20 Norte 35 Norte 0 -- -- 68
2019-05-27 18:00:00 15.2 22 Norte 29 Norte 0 -- -- 70
2019-05-27 17:00:00 16.1 18 Norte 28 Norte 0 -- -- 68
2019-05-27 16:00:00 16 15 Norte 31 Noroeste 0 -- -- 62
2019-05-27 15:00:00 16.5 9 Norte 35 Norte 0 -- -- 64
2019-05-27 14:00:00 16.6 18 Norte 32 Norte 0 -- -- 67
2019-05-27 13:00:00 16.4 17 Norte 31 Norte 0 -- -- 68
2019-05-27 12:00:00 16.7 13 Norte 28 Norte 0 -- -- 69
2019-05-27 11:00:00 15.4 22 Norte 31 Norte 0 -- -- 73
2019-05-27 10:00:00 14.7 17 Norte 23 Norte 0 -- -- 77
2019-05-27 09:00:00 12.7 18 Norte 22 Norte 0 -- -- 83
2019-05-27 08:00:00 9.3 5 Este 14 Este 0 -- -- 89
2019-05-27 07:00:00 7 4 Sur 8 Sudoeste 0 -- -- 92
2019-05-27 06:00:00 6.9 0 Calma 6 Sur 0 -- -- 89
2019-05-27 05:00:00 7.2 0 Calma 6 Noroeste 0 -- -- 87
2019-05-27 04:00:00 7.8 2 Oeste 7 Noroeste 0 -- -- 82
2019-05-27 03:00:00 9.1 3 Noroeste 15 Norte 0 -- -- 79
2019-05-27 02:00:00 10 9 Norte 14 Norte 0 -- -- 80
2019-05-27 01:00:00 10.6 3 Oeste 16 Norte 0 -- -- 73
2019-05-27 00:00:00 11.4 3 Oeste 19 Norte 0 -- -- 73
2019-05-26 23:00:00 12.2 13 Norte 26 Norte 0 -- -- 79
2019-05-26 22:00:00 13.2 18 Norte 30 Norte 0 -- -- 79
2019-05-26 21:00:00 14.8 20 Norte 27 Norte 0 -- -- 74
2019-05-26 20:00:00 17.3 21 Norte 28 Norte 0 -- -- 66
2019-05-26 19:00:00 18.4 20 Norte 30 Norte 0 -- -- 56
2019-05-26 18:00:00 18.8 23 Norte 33 Norte 0 -- -- 57
2019-05-26 17:00:00 19 26 Norte 34 Norte 0 -- -- 55
2019-05-26 16:00:00 18.9 25 Norte 36 Norte 0 -- -- 54
2019-05-26 15:00:00 18.7 24 Norte 38 Norte 0 -- -- 52
2019-05-26 14:00:00 18.3 25 Norte 31 Norte 0 -- -- 55
2019-05-26 13:00:00 18 24 Norte 33 Norte 0 -- -- 56
2019-05-26 12:00:00 17.7 23 Norte 37 Norte 0 -- -- 56
2019-05-26 11:00:00 17.1 15 Norte 32 Nordeste 0 -- -- 55
2019-05-26 10:00:00 14.2 4 Noroeste 20 Norte 0 -- -- 59
2019-05-26 09:00:00 11.4 5 Este 15 Nordeste 0 -- -- 74
2019-05-26 08:00:00 8.6 2 Nordeste 8 Nordeste 0 -- -- 83
2019-05-26 07:00:00 6.4 2 Noroeste 16 Nordeste 0 -- -- 88
2019-05-26 06:00:00 7.9 3 Noroeste 21 Noroeste 0 -- -- 82
2019-05-26 05:00:00 8 8 Norte 28 Noroeste 0 -- -- 85
2019-05-26 04:00:00 8.1 19 Norte 34 Norte 0 -- -- 81
2019-05-26 03:00:00 7.9 14 Norte 32 Norte 0 -- -- 80
2019-05-26 02:00:00 8.1 14 Norte 35 Norte 0 -- -- 79
2019-05-26 01:00:00 8.8 26 Norte 38 Norte 0 -- -- 83
2019-05-26 00:00:00 9.3 27 Norte 37 Norte 0 -- -- 84